sensor_id;sensor_type;location;lat;lon;timestamp;P1;durP1;ratioP1;P2;durP2;ratioP2
3052;SDS011;1536;51.098;6.414;2023-04-24T00:00:11;2.47;;;2.27;;
3052;SDS011;1536;51.098;6.414;2023-04-24T00:02:39;3.37;;;2.50;;
3052;SDS011;1536;51.098;6.414;2023-04-24T00:05:13;2.60;;;2.40;;
3052;SDS011;1536;51.098;6.414;2023-04-24T00:07:40;3.43;;;2.17;;
3052;SDS011;1536;51.098;6.414;2023-04-24T00:10:07;2.53;;;2.20;;
3052;SDS011;1536;51.098;6.414;2023-04-24T00:12:34;2.47;;;2.23;;
3052;SDS011;1536;51.098;6.414;2023-04-24T00:15:01;3.20;;;2.40;;
3052;SDS011;1536;51.098;6.414;2023-04-24T00:17:29;2.47;;;2.27;;
3052;SDS011;1536;51.098;6.414;2023-04-24T00:19:56;2.57;;;2.37;;
3052;SDS011;1536;51.098;6.414;2023-04-24T00:22:25;5.30;;;2.50;;
3052;SDS011;1536;51.098;6.414;2023-04-24T00:24:52;2.93;;;2.70;;
3052;SDS011;1536;51.098;6.414;2023-04-24T00:27:19;2.87;;;2.50;;
3052;SDS011;1536;51.098;6.414;2023-04-24T00:29:46;2.73;;;2.53;;
3052;SDS011;1536;51.098;6.414;2023-04-24T00:32:13;2.87;;;2.40;;
3052;SDS011;1536;51.098;6.414;2023-04-24T00:34:40;5.63;;;3.13;;
3052;SDS011;1536;51.098;6.414;2023-04-24T00:37:08;4.17;;;2.90;;
3052;SDS011;1536;51.098;6.414;2023-04-24T00:39:36;4.00;;;3.10;;
3052;SDS011;1536;51.098;6.414;2023-04-24T00:42:03;4.57;;;3.40;;
3052;SDS011;1536;51.098;6.414;2023-04-24T00:44:31;3.47;;;3.17;;
3052;SDS011;1536;51.098;6.414;2023-04-24T00:46:58;4.80;;;3.40;;
3052;SDS011;1536;51.098;6.414;2023-04-24T00:49:25;4.50;;;3.73;;
3052;SDS011;1536;51.098;6.414;2023-04-24T00:51:53;4.00;;;3.43;;
3052;SDS011;1536;51.098;6.414;2023-04-24T00:54:19;7.60;;;3.87;;
3052;SDS011;1536;51.098;6.414;2023-04-24T00:56:47;4.97;;;4.30;;
3052;SDS011;1536;51.098;6.414;2023-04-24T00:59:16;5.47;;;4.77;;
3052;SDS011;1536;51.098;6.414;2023-04-24T01:01:43;5.30;;;4.00;;
3052;SDS011;1536;51.098;6.414;2023-04-24T01:04:11;6.83;;;5.63;;
3052;SDS011;1536;51.098;6.414;2023-04-24T01:06:38;5.43;;;5.03;;
3052;SDS011;1536;51.098;6.414;2023-04-24T01:09:06;5.03;;;4.57;;
3052;SDS011;1536;51.098;6.414;2023-04-24T01:11:34;7.10;;;5.50;;
3052;SDS011;1536;51.098;6.414;2023-04-24T01:14:02;7.67;;;6.60;;
3052;SDS011;1536;51.098;6.414;2023-04-24T01:16:28;7.93;;;5.90;;
3052;SDS011;1536;51.098;6.414;2023-04-24T01:18:55;5.90;;;5.37;;
3052;SDS011;1536;51.098;6.414;2023-04-24T01:21:22;6.90;;;6.17;;
3052;SDS011;1536;51.098;6.414;2023-04-24T01:23:53;7.73;;;6.93;;
3052;SDS011;1536;51.098;6.414;2023-04-24T01:26:21;9.17;;;7.40;;
3052;SDS011;1536;51.098;6.414;2023-04-24T01:28:50;9.00;;;7.73;;
3052;SDS011;1536;51.098;6.414;2023-04-24T01:31:18;14.37;;;7.00;;
3052;SDS011;1536;51.098;6.414;2023-04-24T01:33:45;9.25;;;7.72;;
3052;SDS011;1536;51.098;6.414;2023-04-24T01:36:12;10.17;;;8.03;;
3052;SDS011;1536;51.098;6.414;2023-04-24T01:38:40;15.10;;;8.63;;
3052;SDS011;1536;51.098;6.414;2023-04-24T01:41:08;18.50;;;7.17;;
3052;SDS011;1536;51.098;6.414;2023-04-24T01:43:35;9.73;;;7.80;;
3052;SDS011;1536;51.098;6.414;2023-04-24T01:46:02;15.43;;;9.68;;
3052;SDS011;1536;51.098;6.414;2023-04-24T01:48:29;10.97;;;8.70;;
3052;SDS011;1536;51.098;6.414;2023-04-24T01:50:56;8.50;;;7.60;;
3052;SDS011;1536;51.098;6.414;2023-04-24T01:53:23;14.13;;;9.67;;
3052;SDS011;1536;51.098;6.414;2023-04-24T01:55:50;16.40;;;9.10;;
3052;SDS011;1536;51.098;6.414;2023-04-24T01:58:18;14.20;;;10.00;;
3052;SDS011;1536;51.098;6.414;2023-04-24T02:00:45;13.87;;;8.07;;
3052;SDS011;1536;51.098;6.414;2023-04-24T02:03:11;11.97;;;9.60;;
3052;SDS011;1536;51.098;6.414;2023-04-24T02:05:38;15.70;;;9.90;;
3052;SDS011;1536;51.098;6.414;2023-04-24T02:08:05;12.57;;;9.10;;
3052;SDS011;1536;51.098;6.414;2023-04-24T02:10:31;18.23;;;9.97;;
3052;SDS011;1536;51.098;6.414;2023-04-24T02:12:58;11.37;;;9.40;;
3052;SDS011;1536;51.098;6.414;2023-04-24T02:15:27;12.93;;;10.07;;
3052;SDS011;1536;51.098;6.414;2023-04-24T02:17:53;15.15;;;11.05;;
3052;SDS011;1536;51.098;6.414;2023-04-24T02:20:20;13.63;;;10.10;;
3052;SDS011;1536;51.098;6.414;2023-04-24T02:22:47;14.55;;;10.82;;
3052;SDS011;1536;51.098;6.414;2023-04-24T02:25:13;12.30;;;10.27;;
3052;SDS011;1536;51.098;6.414;2023-04-24T02:27:40;12.83;;;10.10;;
3052;SDS011;1536;51.098;6.414;2023-04-24T02:30:07;17.40;;;9.60;;
3052;SDS011;1536;51.098;6.414;2023-04-24T02:32:36;14.60;;;10.03;;
3052;SDS011;1536;51.098;6.414;2023-04-24T02:35:04;12.65;;;10.30;;
3052;SDS011;1536;51.098;6.414;2023-04-24T02:37:31;13.67;;;10.03;;
3052;SDS011;1536;51.098;6.414;2023-04-24T02:39:58;18.25;;;9.90;;
3052;SDS011;1536;51.098;6.414;2023-04-24T02:42:25;10.83;;;9.37;;
3052;SDS011;1536;51.098;6.414;2023-04-24T02:44:51;10.23;;;9.10;;
3052;SDS011;1536;51.098;6.414;2023-04-24T02:47:18;10.23;;;8.97;;
3052;SDS011;1536;51.098;6.414;2023-04-24T02:49:46;8.48;;;7.57;;
3052;SDS011;1536;51.098;6.414;2023-04-24T02:52:13;11.67;;;9.50;;
3052;SDS011;1536;51.098;6.414;2023-04-24T02:54:39;16.17;;;10.10;;
3052;SDS011;1536;51.098;6.414;2023-04-24T02:57:06;15.70;;;9.17;;
3052;SDS011;1536;51.098;6.414;2023-04-24T02:59:33;10.67;;;8.03;;
3052;SDS011;1536;51.098;6.414;2023-04-24T03:02:00;14.70;;;9.67;;
3052;SDS011;1536;51.098;6.414;2023-04-24T03:04:26;10.77;;;8.52;;
3052;SDS011;1536;51.098;6.414;2023-04-24T03:06:54;17.53;;;8.93;;
3052;SDS011;1536;51.098;6.414;2023-04-24T03:09:21;11.07;;;8.40;;
3052;SDS011;1536;51.098;6.414;2023-04-24T03:11:48;11.53;;;8.97;;
3052;SDS011;1536;51.098;6.414;2023-04-24T03:14:15;12.00;;;8.23;;
3052;SDS011;1536;51.098;6.414;2023-04-24T03:16:42;11.90;;;9.30;;
3052;SDS011;1536;51.098;6.414;2023-04-24T03:19:09;9.57;;;8.57;;
3052;SDS011;1536;51.098;6.414;2023-04-24T03:21:36;13.40;;;9.90;;
3052;SDS011;1536;51.098;6.414;2023-04-24T03:24:06;17.10;;;9.70;;
3052;SDS011;1536;51.098;6.414;2023-04-24T03:26:33;11.10;;;9.23;;
3052;SDS011;1536;51.098;6.414;2023-04-24T03:29:01;12.57;;;9.63;;
3052;SDS011;1536;51.098;6.414;2023-04-24T03:31:28;11.03;;;9.90;;
3052;SDS011;1536;51.098;6.414;2023-04-24T03:33:55;10.03;;;8.97;;
3052;SDS011;1536;51.098;6.414;2023-04-24T03:36:22;10.23;;;8.83;;
3052;SDS011;1536;51.098;6.414;2023-04-24T03:38:48;14.30;;;9.50;;
3052;SDS011;1536;51.098;6.414;2023-04-24T03:41:16;12.73;;;9.37;;
3052;SDS011;1536;51.098;6.414;2023-04-24T03:43:43;16.10;;;9.77;;
3052;SDS011;1536;51.098;6.414;2023-04-24T03:46:10;13.30;;;9.87;;
3052;SDS011;1536;51.098;6.414;2023-04-24T03:48:37;15.10;;;11.10;;
3052;SDS011;1536;51.098;6.414;2023-04-24T03:51:04;12.90;;;9.10;;
3052;SDS011;1536;51.098;6.414;2023-04-24T03:53:30;12.30;;;8.90;;
3052;SDS011;1536;51.098;6.414;2023-04-24T03:55:57;15.30;;;8.47;;
3052;SDS011;1536;51.098;6.414;2023-04-24T03:58:25;12.90;;;9.25;;
3052;SDS011;1536;51.098;6.414;2023-04-24T04:00:52;13.80;;;9.40;;
3052;SDS011;1536;51.098;6.414;2023-04-24T04:03:19;10.63;;;9.53;;
3052;SDS011;1536;51.098;6.414;2023-04-24T04:05:45;10.63;;;8.77;;
3052;SDS011;1536;51.098;6.414;2023-04-24T04:08:12;23.70;;;9.23;;
3052;SDS011;1536;51.098;6.414;2023-04-24T04:10:39;11.37;;;9.17;;
3052;SDS011;1536;51.098;6.414;2023-04-24T04:13:06;9.50;;;7.97;;
3052;SDS011;1536;51.098;6.414;2023-04-24T04:15:34;12.10;;;9.10;;
3052;SDS011;1536;51.098;6.414;2023-04-24T04:18:00;8.73;;;7.90;;
3052;SDS011;1536;51.098;6.414;2023-04-24T04:20:27;9.57;;;8.60;;
3052;SDS011;1536;51.098;6.414;2023-04-24T04:22:54;8.73;;;7.90;;
3052;SDS011;1536;51.098;6.414;2023-04-24T04:25:21;9.80;;;7.60;;
3052;SDS011;1536;51.098;6.414;2023-04-24T04:27:48;7.77;;;7.07;;
3052;SDS011;1536;51.098;6.414;2023-04-24T04:30:16;8.60;;;7.70;;
3052;SDS011;1536;51.098;6.414;2023-04-24T04:32:44;8.30;;;7.60;;
3052;SDS011;1536;51.098;6.414;2023-04-24T04:35:11;7.83;;;7.13;;
3052;SDS011;1536;51.098;6.414;2023-04-24T04:37:37;11.60;;;7.63;;
3052;SDS011;1536;51.098;6.414;2023-04-24T04:40:06;11.20;;;7.40;;
3052;SDS011;1536;51.098;6.414;2023-04-24T04:42:36;8.53;;;7.70;;
3052;SDS011;1536;51.098;6.414;2023-04-24T04:45:05;9.80;;;7.60;;
3052;SDS011;1536;51.098;6.414;2023-04-24T04:47:33;8.57;;;7.68;;
3052;SDS011;1536;51.098;6.414;2023-04-24T04:50:02;14.00;;;7.97;;
3052;SDS011;1536;51.098;6.414;2023-04-24T04:52:30;10.40;;;7.20;;
3052;SDS011;1536;51.098;6.414;2023-04-24T04:54:57;9.45;;;8.52;;
3052;SDS011;1536;51.098;6.414;2023-04-24T04:57:24;7.93;;;7.05;;
3052;SDS011;1536;51.098;6.414;2023-04-24T04:59:51;11.30;;;7.57;;
3052;SDS011;1536;51.098;6.414;2023-04-24T05:02:17;8.70;;;7.80;;
3052;SDS011;1536;51.098;6.414;2023-04-24T05:04:44;8.07;;;6.20;;
3052;SDS011;1536;51.098;6.414;2023-04-24T05:07:12;7.57;;;6.88;;
3052;SDS011;1536;51.098;6.414;2023-04-24T05:09:39;9.23;;;8.40;;
3052;SDS011;1536;51.098;6.414;2023-04-24T05:12:06;7.70;;;6.90;;
3052;SDS011;1536;51.098;6.414;2023-04-24T05:14:33;11.93;;;7.03;;
3052;SDS011;1536;51.098;6.414;2023-04-24T05:17:00;7.82;;;6.80;;
3052;SDS011;1536;51.098;6.414;2023-04-24T05:19:27;7.38;;;6.57;;
3052;SDS011;1536;51.098;6.414;2023-04-24T05:21:54;8.02;;;6.82;;
3052;SDS011;1536;51.098;6.414;2023-04-24T05:24:22;7.55;;;6.43;;
3052;SDS011;1536;51.098;6.414;2023-04-24T05:26:49;12.52;;;7.53;;
3052;SDS011;1536;51.098;6.414;2023-04-24T05:29:15;9.40;;;6.60;;
3052;SDS011;1536;51.098;6.414;2023-04-24T05:31:44;7.10;;;6.15;;
3052;SDS011;1536;51.098;6.414;2023-04-24T05:34:10;8.30;;;6.10;;
3052;SDS011;1536;51.098;6.414;2023-04-24T05:36:37;7.20;;;6.60;;
3052;SDS011;1536;51.098;6.414;2023-04-24T05:39:04;7.57;;;5.78;;
3052;SDS011;1536;51.098;6.414;2023-04-24T05:41:32;6.60;;;6.00;;
3052;SDS011;1536;51.098;6.414;2023-04-24T05:43:59;6.63;;;5.77;;
3052;SDS011;1536;51.098;6.414;2023-04-24T05:46:25;7.07;;;5.47;;
3052;SDS011;1536;51.098;6.414;2023-04-24T05:48:52;6.28;;;5.60;;
3052;SDS011;1536;51.098;6.414;2023-04-24T05:51:19;7.65;;;5.80;;
3052;SDS011;1536;51.098;6.414;2023-04-24T05:53:46;6.57;;;5.80;;
3052;SDS011;1536;51.098;6.414;2023-04-24T05:56:12;6.65;;;5.90;;
3052;SDS011;1536;51.098;6.414;2023-04-24T05:58:41;8.65;;;5.70;;
3052;SDS011;1536;51.098;6.414;2023-04-24T06:01:07;8.70;;;5.47;;
3052;SDS011;1536;51.098;6.414;2023-04-24T06:03:34;5.90;;;5.30;;
3052;SDS011;1536;51.098;6.414;2023-04-24T06:06:01;10.48;;;6.25;;
3052;SDS011;1536;51.098;6.414;2023-04-24T06:08:27;8.45;;;6.80;;
3052;SDS011;1536;51.098;6.414;2023-04-24T06:10:54;7.93;;;6.15;;
3052;SDS011;1536;51.098;6.414;2023-04-24T06:13:21;6.50;;;5.90;;
3052;SDS011;1536;51.098;6.414;2023-04-24T06:15:49;6.57;;;5.75;;
3052;SDS011;1536;51.098;6.414;2023-04-24T06:18:16;11.45;;;6.15;;
3052;SDS011;1536;51.098;6.414;2023-04-24T06:20:42;6.47;;;4.80;;
3052;SDS011;1536;51.098;6.414;2023-04-24T06:23:09;5.95;;;5.18;;
3052;SDS011;1536;51.098;6.414;2023-04-24T06:25:36;5.65;;;5.15;;
3052;SDS011;1536;51.098;6.414;2023-04-24T06:28:03;5.70;;;5.20;;
3052;SDS011;1536;51.098;6.414;2023-04-24T06:30:30;5.95;;;5.45;;
3052;SDS011;1536;51.098;6.414;2023-04-24T06:32:58;5.25;;;4.80;;
3052;SDS011;1536;51.098;6.414;2023-04-24T06:35:25;5.82;;;5.28;;
3052;SDS011;1536;51.098;6.414;2023-04-24T06:37:52;5.38;;;4.97;;
3052;SDS011;1536;51.098;6.414;2023-04-24T06:40:18;5.43;;;4.80;;
3052;SDS011;1536;51.098;6.414;2023-04-24T06:42:45;7.47;;;4.38;;
3052;SDS011;1536;51.098;6.414;2023-04-24T06:45:12;5.70;;;4.30;;
3052;SDS011;1536;51.098;6.414;2023-04-24T06:47:38;4.70;;;3.75;;
3052;SDS011;1536;51.098;6.414;2023-04-24T06:50:07;5.70;;;3.80;;
3052;SDS011;1536;51.098;6.414;2023-04-24T06:52:34;4.25;;;3.95;;
3052;SDS011;1536;51.098;6.414;2023-04-24T06:55:01;4.55;;;4.15;;
3052;SDS011;1536;51.098;6.414;2023-04-24T06:57:28;5.18;;;4.20;;
3052;SDS011;1536;51.098;6.414;2023-04-24T06:59:55;4.37;;;3.43;;
3052;SDS011;1536;51.098;6.414;2023-04-24T08:17:54;6.65;;;5.45;;
3052;SDS011;1536;51.098;6.414;2023-04-24T08:20:21;5.25;;;4.75;;
3052;SDS011;1536;51.098;6.414;2023-04-24T08:22:47;8.88;;;4.82;;
3052;SDS011;1536;51.098;6.414;2023-04-24T08:25:14;4.72;;;4.32;;
3052;SDS011;1536;51.098;6.414;2023-04-24T08:27:41;7.35;;;5.25;;
3052;SDS011;1536;51.098;6.414;2023-04-24T08:30:08;5.30;;;4.43;;
3052;SDS011;1536;51.098;6.414;2023-04-24T08:32:36;6.25;;;4.15;;
3052;SDS011;1536;51.098;6.414;2023-04-24T08:35:04;6.53;;;4.63;;
3052;SDS011;1536;51.098;6.414;2023-04-24T08:37:34;5.60;;;4.50;;
3052;SDS011;1536;51.098;6.414;2023-04-24T08:40:01;6.03;;;4.55;;
3052;SDS011;1536;51.098;6.414;2023-04-24T08:42:31;5.03;;;4.45;;
3052;SDS011;1536;51.098;6.414;2023-04-24T08:45:00;6.43;;;4.80;;
3052;SDS011;1536;51.098;6.414;2023-04-24T08:47:27;5.72;;;4.75;;
3052;SDS011;1536;51.098;6.414;2023-04-24T08:49:56;6.75;;;5.55;;
3052;SDS011;1536;51.098;6.414;2023-04-24T08:52:25;10.10;;;5.53;;
3052;SDS011;1536;51.098;6.414;2023-04-24T08:54:53;7.60;;;5.45;;
3052;SDS011;1536;51.098;6.414;2023-04-24T08:57:20;8.77;;;5.95;;
3052;SDS011;1536;51.098;6.414;2023-04-24T08:59:48;10.13;;;6.85;;
3052;SDS011;1536;51.098;6.414;2023-04-24T09:02:15;9.63;;;6.53;;
3052;SDS011;1536;51.098;6.414;2023-04-24T09:04:42;8.05;;;7.05;;
3052;SDS011;1536;51.098;6.414;2023-04-24T09:07:10;9.90;;;7.00;;
3052;SDS011;1536;51.098;6.414;2023-04-24T09:09:41;12.80;;;6.78;;
3052;SDS011;1536;51.098;6.414;2023-04-24T09:12:08;8.63;;;7.10;;
3052;SDS011;1536;51.098;6.414;2023-04-24T09:14:35;8.77;;;7.03;;
3052;SDS011;1536;51.098;6.414;2023-04-24T09:17:04;9.32;;;8.20;;
3052;SDS011;1536;51.098;6.414;2023-04-24T09:19:31;15.75;;;8.32;;
3052;SDS011;1536;51.098;6.414;2023-04-24T09:21:58;11.70;;;7.60;;
3052;SDS011;1536;51.098;6.414;2023-04-24T09:24:25;11.23;;;8.10;;
3052;SDS011;1536;51.098;6.414;2023-04-24T09:26:57;9.70;;;7.63;;
3052;SDS011;1536;51.098;6.414;2023-04-24T09:29:26;9.30;;;7.32;;
3052;SDS011;1536;51.098;6.414;2023-04-24T09:31:53;8.45;;;7.50;;
3052;SDS011;1536;51.098;6.414;2023-04-24T09:34:21;10.68;;;7.55;;
3052;SDS011;1536;51.098;6.414;2023-04-24T09:36:49;9.75;;;7.50;;
3052;SDS011;1536;51.098;6.414;2023-04-24T09:39:16;9.65;;;6.93;;
3052;SDS011;1536;51.098;6.414;2023-04-24T09:41:45;14.63;;;7.50;;
3052;SDS011;1536;51.098;6.414;2023-04-24T09:44:15;11.40;;;7.50;;
3052;SDS011;1536;51.098;6.414;2023-04-24T09:46:42;9.25;;;6.78;;
3052;SDS011;1536;51.098;6.414;2023-04-24T09:49:12;10.02;;;6.60;;
3052;SDS011;1536;51.098;6.414;2023-04-24T09:51:40;8.07;;;5.87;;
3052;SDS011;1536;51.098;6.414;2023-04-24T09:54:12;8.18;;;6.28;;
3052;SDS011;1536;51.098;6.414;2023-04-24T09:56:42;8.60;;;5.90;;
3052;SDS011;1536;51.098;6.414;2023-04-24T09:59:10;11.40;;;6.45;;
3052;SDS011;1536;51.098;6.414;2023-04-24T10:01:38;6.67;;;5.50;;
3052;SDS011;1536;51.098;6.414;2023-04-24T10:04:10;12.60;;;5.95;;
3052;SDS011;1536;51.098;6.414;2023-04-24T10:06:42;8.43;;;5.57;;
3052;SDS011;1536;51.098;6.414;2023-04-24T10:09:09;14.07;;;5.83;;
3052;SDS011;1536;51.098;6.414;2023-04-24T10:11:37;13.70;;;4.80;;
3052;SDS011;1536;51.098;6.414;2023-04-24T10:14:07;14.33;;;4.90;;
3052;SDS011;1536;51.098;6.414;2023-04-24T10:16:35;6.90;;;5.00;;
3052;SDS011;1536;51.098;6.414;2023-04-24T10:19:05;9.00;;;4.50;;
3052;SDS011;1536;51.098;6.414;2023-04-24T10:21:32;9.20;;;4.63;;
3052;SDS011;1536;51.098;6.414;2023-04-24T10:24:01;6.60;;;3.77;;
3052;SDS011;1536;51.098;6.414;2023-04-24T10:26:29;5.43;;;3.83;;
3052;SDS011;1536;51.098;6.414;2023-04-24T10:28:57;7.13;;;3.80;;
3052;SDS011;1536;51.098;6.414;2023-04-24T10:31:24;8.20;;;3.97;;
3052;SDS011;1536;51.098;6.414;2023-04-24T10:33:53;10.90;;;4.30;;
3052;SDS011;1536;51.098;6.414;2023-04-24T10:36:21;10.85;;;3.75;;
3052;SDS011;1536;51.098;6.414;2023-04-24T10:38:51;11.52;;;4.25;;
3052;SDS011;1536;51.098;6.414;2023-04-24T10:41:20;9.80;;;5.30;;
3052;SDS011;1536;51.098;6.414;2023-04-24T10:43:48;5.70;;;4.00;;
3052;SDS011;1536;51.098;6.414;2023-04-24T10:46:29;8.75;;;3.83;;
3052;SDS011;1536;51.098;6.414;2023-04-24T10:48:57;8.73;;;4.30;;
3052;SDS011;1536;51.098;6.414;2023-04-24T10:51:25;7.43;;;4.70;;
3052;SDS011;1536;51.098;6.414;2023-04-24T10:54:21;8.75;;;5.15;;
3052;SDS011;1536;51.098;6.414;2023-04-24T10:56:49;11.30;;;4.88;;
3052;SDS011;1536;51.098;6.414;2023-04-24T10:59:23;12.32;;;5.47;;
3052;SDS011;1536;51.098;6.414;2023-04-24T11:01:52;9.53;;;6.17;;
3052;SDS011;1536;51.098;6.414;2023-04-24T11:04:29;15.27;;;6.13;;
3052;SDS011;1536;51.098;6.414;2023-04-24T11:06:58;14.23;;;5.53;;
3052;SDS011;1536;51.098;6.414;2023-04-24T11:09:26;15.07;;;6.23;;
3052;SDS011;1536;51.098;6.414;2023-04-24T11:12:02;12.83;;;4.80;;
3052;SDS011;1536;51.098;6.414;2023-04-24T11:14:31;7.97;;;4.90;;
3052;SDS011;1536;51.098;6.414;2023-04-24T11:17:30;13.67;;;6.63;;
3052;SDS011;1536;51.098;6.414;2023-04-24T11:20:03;11.83;;;5.73;;
3052;SDS011;1536;51.098;6.414;2023-04-24T11:22:32;10.57;;;5.27;;
3052;SDS011;1536;51.098;6.414;2023-04-24T11:25:01;9.80;;;6.40;;
3052;SDS011;1536;51.098;6.414;2023-04-24T11:27:29;10.93;;;4.80;;
3052;SDS011;1536;51.098;6.414;2023-04-24T11:29:59;11.83;;;5.40;;
3052;SDS011;1536;51.098;6.414;2023-04-24T11:32:27;14.10;;;5.77;;
3052;SDS011;1536;51.098;6.414;2023-04-24T11:34:56;8.30;;;5.40;;
3052;SDS011;1536;51.098;6.414;2023-04-24T11:37:26;12.37;;;5.57;;
3052;SDS011;1536;51.098;6.414;2023-04-24T11:39:54;10.57;;;4.60;;
3052;SDS011;1536;51.098;6.414;2023-04-24T11:42:21;7.30;;;3.87;;
3052;SDS011;1536;51.098;6.414;2023-04-24T11:44:49;10.37;;;4.33;;
3052;SDS011;1536;51.098;6.414;2023-04-24T11:47:15;12.23;;;4.93;;
3052;SDS011;1536;51.098;6.414;2023-04-24T11:49:42;7.93;;;4.63;;
3052;SDS011;1536;51.098;6.414;2023-04-24T11:52:09;11.73;;;3.70;;
3052;SDS011;1536;51.098;6.414;2023-04-24T11:54:37;5.40;;;3.50;;
3052;SDS011;1536;51.098;6.414;2023-04-24T11:57:12;6.30;;;3.43;;
3052;SDS011;1536;51.098;6.414;2023-04-24T11:59:38;11.73;;;3.70;;
3052;SDS011;1536;51.098;6.414;2023-04-24T12:02:05;10.07;;;3.63;;
3052;SDS011;1536;51.098;6.414;2023-04-24T12:04:39;8.17;;;3.40;;
3052;SDS011;1536;51.098;6.414;2023-04-24T12:07:06;6.07;;;3.33;;
3052;SDS011;1536;51.098;6.414;2023-04-24T12:09:42;8.10;;;3.70;;
3052;SDS011;1536;51.098;6.414;2023-04-24T12:12:10;4.47;;;3.37;;
3052;SDS011;1536;51.098;6.414;2023-04-24T12:14:44;10.03;;;4.00;;
3052;SDS011;1536;51.098;6.414;2023-04-24T12:17:13;4.10;;;3.70;;
3052;SDS011;1536;51.098;6.414;2023-04-24T12:19:44;10.23;;;3.73;;
3052;SDS011;1536;51.098;6.414;2023-04-24T12:22:11;11.70;;;4.13;;
3052;SDS011;1536;51.098;6.414;2023-04-24T12:27:25;6.37;;;3.70;;
3052;SDS011;1536;51.098;6.414;2023-04-24T12:29:53;9.03;;;4.07;;
3052;SDS011;1536;51.098;6.414;2023-04-24T12:32:21;8.83;;;4.07;;
3052;SDS011;1536;51.098;6.414;2023-04-24T12:34:49;6.17;;;3.60;;
3052;SDS011;1536;51.098;6.414;2023-04-24T12:37:15;5.53;;;3.50;;
3052;SDS011;1536;51.098;6.414;2023-04-24T12:39:44;5.87;;;3.13;;
3052;SDS011;1536;51.098;6.414;2023-04-24T12:42:25;5.20;;;3.67;;
3052;SDS011;1536;51.098;6.414;2023-04-24T12:44:55;3.80;;;3.20;;
3052;SDS011;1536;51.098;6.414;2023-04-24T12:47:23;5.00;;;3.27;;
3052;SDS011;1536;51.098;6.414;2023-04-24T12:49:50;12.83;;;3.73;;
3052;SDS011;1536;51.098;6.414;2023-04-24T12:52:17;7.87;;;4.43;;
3052;SDS011;1536;51.098;6.414;2023-04-24T12:54:44;4.80;;;3.60;;
3052;SDS011;1536;51.098;6.414;2023-04-24T12:57:12;7.27;;;3.13;;
3052;SDS011;1536;51.098;6.414;2023-04-24T12:59:39;5.57;;;3.47;;
3052;SDS011;1536;51.098;6.414;2023-04-24T13:02:06;9.63;;;3.60;;
3052;SDS011;1536;51.098;6.414;2023-04-24T13:04:34;3.40;;;3.10;;
3052;SDS011;1536;51.098;6.414;2023-04-24T13:07:00;4.43;;;3.23;;
3052;SDS011;1536;51.098;6.414;2023-04-24T13:09:27;4.90;;;3.17;;
3052;SDS011;1536;51.098;6.414;2023-04-24T13:11:54;6.37;;;3.30;;
3052;SDS011;1536;51.098;6.414;2023-04-24T13:14:22;9.00;;;5.10;;
3052;SDS011;1536;51.098;6.414;2023-04-24T13:16:49;9.27;;;3.53;;
3052;SDS011;1536;51.098;6.414;2023-04-24T13:19:16;7.77;;;3.97;;
3052;SDS011;1536;51.098;6.414;2023-04-24T13:21:43;12.20;;;4.73;;
3052;SDS011;1536;51.098;6.414;2023-04-24T13:24:10;6.20;;;3.80;;
3052;SDS011;1536;51.098;6.414;2023-04-24T13:26:38;6.07;;;3.80;;
3052;SDS011;1536;51.098;6.414;2023-04-24T13:29:04;7.20;;;3.60;;
3052;SDS011;1536;51.098;6.414;2023-04-24T13:31:32;5.27;;;4.00;;
3052;SDS011;1536;51.098;6.414;2023-04-24T13:44:05;4.70;;;4.20;;
3052;SDS011;1536;51.098;6.414;2023-04-24T13:46:33;5.17;;;3.77;;
3052;SDS011;1536;51.098;6.414;2023-04-24T13:49:01;4.67;;;3.70;;
3052;SDS011;1536;51.098;6.414;2023-04-24T13:51:29;11.73;;;3.70;;
3052;SDS011;1536;51.098;6.414;2023-04-24T13:53:56;7.03;;;3.50;;
3052;SDS011;1536;51.098;6.414;2023-04-24T13:56:22;8.90;;;4.33;;
3052;SDS011;1536;51.098;6.414;2023-04-24T13:58:49;5.40;;;3.17;;
3052;SDS011;1536;51.098;6.414;2023-04-24T14:01:16;3.63;;;3.20;;
3052;SDS011;1536;51.098;6.414;2023-04-24T14:03:44;5.43;;;3.23;;
3052;SDS011;1536;51.098;6.414;2023-04-24T14:06:10;5.23;;;3.67;;
3052;SDS011;1536;51.098;6.414;2023-04-24T14:08:37;5.00;;;3.27;;
3052;SDS011;1536;51.098;6.414;2023-04-24T14:11:04;6.40;;;3.70;;
3052;SDS011;1536;51.098;6.414;2023-04-24T14:13:30;7.77;;;4.20;;
3052;SDS011;1536;51.098;6.414;2023-04-24T14:15:57;5.40;;;3.67;;
3052;SDS011;1536;51.098;6.414;2023-04-24T14:18:24;3.80;;;3.37;;
3052;SDS011;1536;51.098;6.414;2023-04-24T14:20:53;7.10;;;3.60;;
3052;SDS011;1536;51.098;6.414;2023-04-24T14:23:20;6.60;;;3.10;;
3052;SDS011;1536;51.098;6.414;2023-04-24T14:25:46;3.77;;;2.90;;
3052;SDS011;1536;51.098;6.414;2023-04-24T14:28:15;4.93;;;3.07;;
3052;SDS011;1536;51.098;6.414;2023-04-24T14:30:42;3.20;;;2.90;;
3052;SDS011;1536;51.098;6.414;2023-04-24T14:33:09;5.30;;;3.77;;
3052;SDS011;1536;51.098;6.414;2023-04-24T14:35:37;4.63;;;3.00;;
3052;SDS011;1536;51.098;6.414;2023-04-24T14:38:05;8.17;;;3.67;;
3052;SDS011;1536;51.098;6.414;2023-04-24T14:40:31;3.43;;;3.13;;
3052;SDS011;1536;51.098;6.414;2023-04-24T14:42:58;3.50;;;3.03;;
3052;SDS011;1536;51.098;6.414;2023-04-24T14:45:25;7.13;;;3.10;;
3052;SDS011;1536;51.098;6.414;2023-04-24T14:47:52;4.50;;;3.00;;
3052;SDS011;1536;51.098;6.414;2023-04-24T14:50:19;4.87;;;3.90;;
3052;SDS011;1536;51.098;6.414;2023-04-24T14:52:46;3.60;;;3.17;;
3052;SDS011;1536;51.098;6.414;2023-04-24T14:55:14;3.40;;;3.10;;
3052;SDS011;1536;51.098;6.414;2023-04-24T14:57:41;3.50;;;3.00;;
3052;SDS011;1536;51.098;6.414;2023-04-24T15:00:09;3.63;;;3.17;;
3052;SDS011;1536;51.098;6.414;2023-04-24T15:02:36;3.93;;;3.30;;
3052;SDS011;1536;51.098;6.414;2023-04-24T15:05:07;3.60;;;3.30;;
3052;SDS011;1536;51.098;6.414;2023-04-24T15:07:34;4.47;;;3.20;;
3052;SDS011;1536;51.098;6.414;2023-04-24T15:10:01;4.60;;;2.90;;
3052;SDS011;1536;51.098;6.414;2023-04-24T15:12:29;6.93;;;3.00;;
3052;SDS011;1536;51.098;6.414;2023-04-24T15:14:57;3.60;;;3.20;;
3052;SDS011;1536;51.098;6.414;2023-04-24T15:17:23;4.27;;;2.97;;
3052;SDS011;1536;51.098;6.414;2023-04-24T15:19:50;3.93;;;2.97;;
3052;SDS011;1536;51.098;6.414;2023-04-24T15:22:17;4.63;;;3.27;;
3052;SDS011;1536;51.098;6.414;2023-04-24T15:24:43;4.77;;;3.70;;
3052;SDS011;1536;51.098;6.414;2023-04-24T15:27:10;4.13;;;3.10;;
3052;SDS011;1536;51.098;6.414;2023-04-24T15:29:38;3.73;;;3.37;;
3052;SDS011;1536;51.098;6.414;2023-04-24T15:32:05;3.60;;;3.30;;
3052;SDS011;1536;51.098;6.414;2023-04-24T15:34:31;8.33;;;4.40;;
3052;SDS011;1536;51.098;6.414;2023-04-24T15:36:59;4.73;;;3.30;;
3052;SDS011;1536;51.098;6.414;2023-04-24T15:39:26;3.77;;;3.13;;
3052;SDS011;1536;51.098;6.414;2023-04-24T15:41:52;4.60;;;3.90;;
3052;SDS011;1536;51.098;6.414;2023-04-24T15:44:20;5.90;;;3.20;;
3052;SDS011;1536;51.098;6.414;2023-04-24T15:46:48;4.50;;;3.20;;
3052;SDS011;1536;51.098;6.414;2023-04-24T15:49:16;4.90;;;2.90;;
3052;SDS011;1536;51.098;6.414;2023-04-24T15:51:43;4.83;;;3.40;;
3052;SDS011;1536;51.098;6.414;2023-04-24T15:54:09;3.30;;;2.97;;
3052;SDS011;1536;51.098;6.414;2023-04-24T15:56:36;3.53;;;3.20;;
3052;SDS011;1536;51.098;6.414;2023-04-24T15:59:03;3.30;;;2.90;;
3052;SDS011;1536;51.098;6.414;2023-04-24T16:01:29;4.70;;;2.93;;
3052;SDS011;1536;51.098;6.414;2023-04-24T16:03:58;5.77;;;3.13;;
3052;SDS011;1536;51.098;6.414;2023-04-24T16:06:25;3.77;;;2.60;;
3052;SDS011;1536;51.098;6.414;2023-04-24T16:08:53;3.43;;;2.80;;
3052;SDS011;1536;51.098;6.414;2023-04-24T16:11:19;10.27;;;5.20;;
3052;SDS011;1536;51.098;6.414;2023-04-24T16:13:46;3.50;;;3.20;;
3052;SDS011;1536;51.098;6.414;2023-04-24T16:16:13;3.23;;;2.93;;
3052;SDS011;1536;51.098;6.414;2023-04-24T16:18:39;7.50;;;4.00;;
3052;SDS011;1536;51.098;6.414;2023-04-24T16:21:07;3.97;;;3.53;;
3052;SDS011;1536;51.098;6.414;2023-04-24T16:23:34;4.27;;;3.30;;
3052;SDS011;1536;51.098;6.414;2023-04-24T16:26:01;4.93;;;3.73;;
3052;SDS011;1536;51.098;6.414;2023-04-24T16:28:27;4.03;;;3.10;;
3052;SDS011;1536;51.098;6.414;2023-04-24T16:30:55;6.73;;;3.43;;
3052;SDS011;1536;51.098;6.414;2023-04-24T16:33:22;2.77;;;2.57;;
3052;SDS011;1536;51.098;6.414;2023-04-24T16:35:50;3.63;;;3.33;;
3052;SDS011;1536;51.098;6.414;2023-04-24T16:38:18;7.50;;;3.23;;
3052;SDS011;1536;51.098;6.414;2023-04-24T16:40:45;4.67;;;3.00;;